Time;durP1;ratioP1;P1;durP2;ratioP2;P2;SDS_P1;SDS_P2;PMS_P1;PMS_P2;Temp;Humidity;BMP_temperature;BMP_pressure;BME280_temperature;BME280_humidity;BME280_pressure;Samples;Min_cycle;Max_cycle;Signal;HPM_P1;HPM_P2
2023/08/20 00:01:42;;;;;;;20.25;9.68;;;;;;;;;;5111801;28;20076;-57
2023/08/20 00:04:08;;;;;;;25.10;9.32;;;;;;;;;;5111154;28;20087;-58
2023/08/20 00:06:35;;;;;;;23.65;9.68;;;;;;;;;;5111419;28;20070;-55
2023/08/20 00:09:01;;;;;;;21.13;9.52;;;;;;;;;;5111693;28;20024;-58
2023/08/20 00:11:27;;;;;;;19.15;9.05;;;;;;;;;;5108923;28;20168;-55
2023/08/20 00:13:53;;;;;;;25.30;10.93;;;;;;;;;;5110837;28;20020;-56
2023/08/20 00:16:19;;;;;;;22.60;10.07;;;;;;;;;;5111095;28;20036;-56
2023/08/20 00:18:45;;;;;;;21.10;9.35;;;;;;;;;;5111384;28;20103;-57
2023/08/20 00:21:11;;;;;;;22.70;10.88;;;;;;;;;;5095107;28;20126;-56
2023/08/20 00:23:37;;;;;;;22.13;9.43;;;;;;;;;;5097050;28;20033;-58
2023/08/20 00:26:03;;;;;;;20.90;9.50;;;;;;;;;;5110994;28;20028;-54
2023/08/20 00:28:29;;;;;;;21.38;10.18;;;;;;;;;;5106982;28;20507;-55
2023/08/20 00:30:56;;;;;;;25.45;11.07;;;;;;;;;;5111404;28;20521;-58
2023/08/20 00:33:21;;;;;;;26.15;10.98;;;;;;;;;;5110217;28;20051;-58
2023/08/20 00:35:47;;;;;;;22.65;10.35;;;;;;;;;;5109776;28;20055;-58
2023/08/20 00:38:13;;;;;;;23.00;10.60;;;;;;;;;;5111198;28;20057;-57
2023/08/20 00:40:39;;;;;;;23.25;12.73;;;;;;;;;;5111070;28;20032;-57
2023/08/20 00:43:06;;;;;;;20.88;11.40;;;;;;;;;;5110922;28;20055;-57
2023/08/20 00:45:32;;;;;;;25.60;12.25;;;;;;;;;;5110765;28;20032;-56
2023/08/20 00:47:58;;;;;;;23.35;12.35;;;;;;;;;;5111445;28;20398;-56
2023/08/20 00:50:24;;;;;;;24.73;14.68;;;;;;;;;;5112108;28;20030;-58
2023/08/20 00:52:50;;;;;;;22.58;13.38;;;;;;;;;;5115282;28;20016;-57
2023/08/20 00:55:17;;;;;;;23.60;13.00;;;;;;;;;;5096735;28;20024;-54
2023/08/20 00:57:43;;;;;;;22.50;13.25;;;;;;;;;;5115222;28;20015;-56
2023/08/20 01:00:10;;;;;;;21.85;12.65;;;;;;;;;;5115089;28;20035;-58
2023/08/20 01:02:37;;;;;;;24.40;13.02;;;;;;;;;;5114930;28;20034;-57
2023/08/20 01:05:05;;;;;;;24.75;12.50;;;;;;;;;;5114629;28;20080;-58
2023/08/20 01:07:39;;;;;;;23.98;13.65;;;;;;;;;;5115033;28;20111;-58
2023/08/20 01:10:09;;;;;;;25.90;13.65;;;;;;;;;;5112862;28;20026;-56
2023/08/20 01:12:35;;;;;;;24.10;13.77;;;;;;;;;;5114983;28;20054;-57
2023/08/20 01:15:01;;;;;;;22.73;12.90;;;;;;;;;;5096251;28;20020;-58
2023/08/20 01:17:27;;;;;;;29.33;13.20;;;;;;;;;;5114387;28;20023;-58
2023/08/20 01:19:53;;;;;;;21.95;12.82;;;;;;;;;;5114474;28;20480;-57
2023/08/20 01:22:39;;;;;;;25.35;13.13;;;;;;;;;;5114612;28;20031;-58
2023/08/20 01:25:24;;;;;;;24.80;12.35;;;;;;;;;;5114209;28;20024;-58
2023/08/20 01:28:08;;;;;;;23.00;12.45;;;;;;;;;;5114360;28;20044;-55
2023/08/20 01:30:34;;;;;;;25.58;12.25;;;;;;;;;;5114726;28;20016;-56
2023/08/20 01:33:01;;;;;;;24.08;12.73;;;;;;;;;;5114578;28;20099;-58
2023/08/20 01:35:27;;;;;;;24.35;13.07;;;;;;;;;;5114301;28;20110;-57
2023/08/20 01:37:53;;;;;;;24.80;12.73;;;;;;;;;;5114406;28;20080;-58
2023/08/20 01:40:19;;;;;;;29.52;12.70;;;;;;;;;;5112925;28;20015;-58
2023/08/20 01:42:45;;;;;;;22.25;12.18;;;;;;;;;;5114489;28;20095;-57
2023/08/20 01:45:11;;;;;;;25.20;13.32;;;;;;;;;;5114192;28;20693;-58
2023/08/20 01:47:37;;;;;;;21.95;13.52;;;;;;;;;;5096138;28;20027;-57
2023/08/20 01:50:04;;;;;;;23.58;12.57;;;;;;;;;;5114309;28;20023;-58
2023/08/20 01:52:30;;;;;;;23.27;12.45;;;;;;;;;;5114248;28;20129;-58
2023/08/20 01:54:56;;;;;;;26.58;11.82;;;;;;;;;;5113979;28;20387;-56
2023/08/20 01:57:22;;;;;;;24.33;11.65;;;;;;;;;;5114057;28;20039;-58
2023/08/20 01:59:48;;;;;;;22.92;12.02;;;;;;;;;;5113911;28;20024;-57
2023/08/20 02:02:14;;;;;;;23.20;13.50;;;;;;;;;;5095604;28;20380;-58
2023/08/20 02:04:40;;;;;;;26.52;12.23;;;;;;;;;;5113850;28;20023;-58
2023/08/20 02:07:06;;;;;;;25.90;12.93;;;;;;;;;;5112185;28;20074;-57
2023/08/20 02:09:32;;;;;;;23.75;11.48;;;;;;;;;;5113229;28;20043;-54
2023/08/20 02:11:58;;;;;;;22.17;11.23;;;;;;;;;;5113948;28;20020;-58
2023/08/20 02:14:24;;;;;;;23.58;11.88;;;;;;;;;;5113626;28;20023;-53
2023/08/20 02:16:50;;;;;;;21.80;11.57;;;;;;;;;;5113734;28;20072;-58
2023/08/20 02:19:16;;;;;;;20.65;11.00;;;;;;;;;;5095634;28;20483;-58
2023/08/20 02:21:42;;;;;;;23.95;11.27;;;;;;;;;;5095476;28;20024;-56
2023/08/20 02:24:08;;;;;;;24.63;12.20;;;;;;;;;;5113218;28;20031;-58
2023/08/20 02:26:34;;;;;;;24.58;12.63;;;;;;;;;;5113753;28;20092;-57
2023/08/20 02:29:00;;;;;;;24.42;12.05;;;;;;;;;;5113376;28;20046;-57
2023/08/20 02:31:26;;;;;;;23.48;11.77;;;;;;;;;;5112406;28;20468;-55
2023/08/20 02:33:53;;;;;;;23.55;11.63;;;;;;;;;;5110311;28;20015;-56
2023/08/20 02:36:19;;;;;;;22.42;12.35;;;;;;;;;;5113302;28;20031;-55
2023/08/20 02:38:46;;;;;;;24.20;11.68;;;;;;;;;;5111485;28;20035;-57
2023/08/20 02:41:12;;;;;;;23.13;12.38;;;;;;;;;;5112846;28;20420;-56
2023/08/20 02:43:38;;;;;;;24.15;13.27;;;;;;;;;;5094102;28;20458;-58
2023/08/20 02:46:04;;;;;;;22.23;10.95;;;;;;;;;;5092503;28;20101;-59
2023/08/20 02:48:30;;;;;;;21.60;12.15;;;;;;;;;;5092661;28;20039;-59
2023/08/20 02:50:56;;;;;;;25.02;12.35;;;;;;;;;;5092785;28;20096;-58
2023/08/20 02:53:23;;;;;;;23.70;12.10;;;;;;;;;;5074686;28;20107;-58
2023/08/20 02:55:49;;;;;;;22.80;11.18;;;;;;;;;;5092389;28;20370;-56
2023/08/20 02:58:15;;;;;;;22.80;11.82;;;;;;;;;;5092476;28;20399;-58
2023/08/20 03:00:42;;;;;;;23.05;12.07;;;;;;;;;;5092720;28;20043;-57
2023/08/20 03:03:08;;;;;;;23.02;11.52;;;;;;;;;;5074566;28;20479;-58
2023/08/20 03:05:34;;;;;;;22.05;11.63;;;;;;;;;;5092589;28;20111;-58
2023/08/20 03:08:01;;;;;;;23.45;11.30;;;;;;;;;;5094739;28;20084;-55
2023/08/20 03:10:34;;;;;;;24.88;12.23;;;;;;;;;;5113096;28;20560;-57
2023/08/20 03:13:00;;;;;;;21.92;11.32;;;;;;;;;;5111825;28;20032;-58
2023/08/20 03:15:26;;;;;;;21.58;11.60;;;;;;;;;;5112496;28;20020;-58
2023/08/20 03:17:52;;;;;;;23.45;10.98;;;;;;;;;;5112433;28;20023;-58
2023/08/20 03:20:18;;;;;;;23.88;11.45;;;;;;;;;;5112888;28;20020;-56
2023/08/20 03:22:44;;;;;;;23.33;11.68;;;;;;;;;;5097571;28;20384;-58
2023/08/20 03:25:10;;;;;;;22.25;11.30;;;;;;;;;;5091990;28;20026;-58
2023/08/20 03:27:36;;;;;;;25.38;11.88;;;;;;;;;;5092288;28;20051;-56
2023/08/20 03:30:03;;;;;;;21.05;11.90;;;;;;;;;;5073039;28;20345;-57
2023/08/20 03:32:29;;;;;;;21.23;10.15;;;;;;;;;;5091781;28;20020;-58
2023/08/20 03:34:55;;;;;;;21.48;10.85;;;;;;;;;;5091647;28;20020;-56
2023/08/20 03:37:22;;;;;;;23.45;10.75;;;;;;;;;;5091877;28;20043;-56
2023/08/20 03:39:48;;;;;;;20.55;10.48;;;;;;;;;;5106075;28;20395;-58
2023/08/20 03:42:14;;;;;;;22.77;10.70;;;;;;;;;;5112170;28;20088;-58
2023/08/20 03:44:40;;;;;;;24.85;12.05;;;;;;;;;;5112056;28;20481;-56
2023/08/20 03:47:06;;;;;;;25.38;12.32;;;;;;;;;;5112139;28;20032;-55
2023/08/20 03:49:32;;;;;;;24.65;11.93;;;;;;;;;;5112103;28;20088;-56
2023/08/20 03:51:58;;;;;;;26.77;12.88;;;;;;;;;;5112182;28;20062;-58
2023/08/20 03:54:24;;;;;;;27.33;14.48;;;;;;;;;;5111944;28;20019;-57
2023/08/20 03:56:50;;;;;;;24.17;15.18;;;;;;;;;;5112093;28;20058;-58
2023/08/20 03:59:16;;;;;;;26.92;14.48;;;;;;;;;;5111991;28;20089;-58
2023/08/20 04:01:42;;;;;;;30.20;15.23;;;;;;;;;;5111870;28;20024;-54
2023/08/20 04:04:08;;;;;;;30.13;15.02;;;;;;;;;;5111850;28;20107;-54
2023/08/20 04:06:34;;;;;;;27.65;14.68;;;;;;;;;;5112083;28;20098;-57
2023/08/20 04:09:00;;;;;;;26.77;14.15;;;;;;;;;;5110012;28;20032;-56
2023/08/20 04:11:25;;;;;;;29.80;14.15;;;;;;;;;;5093024;28;20026;-56
2023/08/20 04:13:51;;;;;;;29.08;15.18;;;;;;;;;;5111854;28;20476;-59
2023/08/20 04:16:17;;;;;;;27.08;15.18;;;;;;;;;;5111828;28;20031;-58
2023/08/20 04:18:43;;;;;;;29.33;16.33;;;;;;;;;;5111896;28;20027;-58
2023/08/20 04:21:09;;;;;;;27.50;15.85;;;;;;;;;;5111833;28;20357;-58
2023/08/20 04:23:35;;;;;;;27.73;15.13;;;;;;;;;;5093548;28;20020;-55
2023/08/20 04:26:01;;;;;;;29.83;15.55;;;;;;;;;;5115403;28;20028;-56
2023/08/20 04:28:28;;;;;;;28.17;15.27;;;;;;;;;;5116083;28;20077;-55
2023/08/20 04:30:54;;;;;;;29.30;16.65;;;;;;;;;;5115965;28;20030;-56
2023/08/20 04:33:20;;;;;;;28.60;16.48;;;;;;;;;;5115945;28;20016;-57
2023/08/20 04:35:46;;;;;;;28.45;17.55;;;;;;;;;;5115636;28;20023;-54
2023/08/20 04:38:12;;;;;;;28.80;16.70;;;;;;;;;;5115899;28;20085;-58
2023/08/20 04:40:38;;;;;;;33.22;17.80;;;;;;;;;;5114057;28;20464;-55
2023/08/20 04:43:04;;;;;;;29.42;17.73;;;;;;;;;;5101013;28;20028;-58
2023/08/20 04:45:30;;;;;;;32.90;19.00;;;;;;;;;;5077043;28;20052;-57
2023/08/20 04:47:56;;;;;;;33.00;19.40;;;;;;;;;;5077091;28;20051;-58
2023/08/20 04:50:22;;;;;;;29.92;19.10;;;;;;;;;;5095196;28;20020;-56
2023/08/20 04:52:48;;;;;;;28.88;17.40;;;;;;;;;;5095191;28;20028;-57
2023/08/20 04:55:15;;;;;;;35.38;18.27;;;;;;;;;;5094717;28;20040;-57
2023/08/20 04:57:41;;;;;;;29.58;18.83;;;;;;;;;;5103628;28;20571;-58
2023/08/20 05:00:09;;;;;;;33.00;18.38;;;;;;;;;;5115149;28;20044;-57
2023/08/20 05:02:35;;;;;;;33.00;19.20;;;;;;;;;;5115361;28;20026;-56
2023/08/20 05:05:02;;;;;;;28.30;16.73;;;;;;;;;;5096812;28;20032;-53
2023/08/20 05:07:28;;;;;;;27.35;15.82;;;;;;;;;;5096957;28;20038;-58
2023/08/20 05:09:54;;;;;;;28.23;16.30;;;;;;;;;;5112485;28;20023;-56
2023/08/20 05:12:20;;;;;;;30.88;16.88;;;;;;;;;;5094921;28;20077;-56
2023/08/20 05:14:46;;;;;;;28.95;16.10;;;;;;;;;;5094548;28;20032;-53
2023/08/20 05:17:12;;;;;;;30.60;17.02;;;;;;;;;;5076438;28;20017;-55
2023/08/20 05:19:38;;;;;;;27.88;16.60;;;;;;;;;;5094616;28;20019;-56
2023/08/20 05:22:04;;;;;;;27.17;14.93;;;;;;;;;;5094480;28;20127;-53
2023/08/20 05:24:30;;;;;;;25.90;16.33;;;;;;;;;;5094439;28;20024;-57
2023/08/20 05:27:05;;;;;;;28.38;17.08;;;;;;;;;;5094589;28;20407;-57
2023/08/20 05:29:31;;;;;;;29.23;17.08;;;;;;;;;;5094455;28;20020;-58
2023/08/20 05:31:57;;;;;;;25.98;16.10;;;;;;;;;;5076077;28;20130;-56
2023/08/20 05:34:23;;;;;;;26.38;15.77;;;;;;;;;;5076072;28;20016;-57
2023/08/20 05:36:49;;;;;;;29.80;16.98;;;;;;;;;;5075258;28;20030;-57
2023/08/20 05:39:15;;;;;;;24.60;16.52;;;;;;;;;;5076072;28;20441;-58
2023/08/20 05:41:41;;;;;;;26.92;15.60;;;;;;;;;;5107221;28;20037;-58
2023/08/20 05:44:07;;;;;;;28.90;16.90;;;;;;;;;;5114332;28;20031;-57
2023/08/20 05:46:33;;;;;;;26.52;17.02;;;;;;;;;;5114514;28;20445;-57
2023/08/20 05:48:59;;;;;;;26.90;15.90;;;;;;;;;;5114181;28;20068;-55
2023/08/20 05:51:25;;;;;;;26.98;15.10;;;;;;;;;;5096200;28;20024;-57
2023/08/20 05:53:51;;;;;;;26.50;16.60;;;;;;;;;;5114337;28;20020;-55
2023/08/20 05:56:17;;;;;;;25.83;16.38;;;;;;;;;;5096019;28;20020;-58
2023/08/20 05:58:43;;;;;;;26.10;16.42;;;;;;;;;;5109778;28;20039;-54
2023/08/20 06:01:09;;;;;;;25.75;16.50;;;;;;;;;;5114239;28;20077;-56
2023/08/20 06:03:35;;;;;;;27.10;15.95;;;;;;;;;;5114056;28;20495;-57
2023/08/20 06:06:02;;;;;;;26.85;16.17;;;;;;;;;;5114135;28;20072;-55
2023/08/20 06:08:28;;;;;;;25.42;14.93;;;;;;;;;;5110757;28;20020;-56
2023/08/20 06:10:54;;;;;;;28.00;17.00;;;;;;;;;;5113460;28;20069;-57
2023/08/20 06:13:20;;;;;;;26.75;16.05;;;;;;;;;;5109482;28;20095;-57
2023/08/20 06:15:46;;;;;;;27.08;16.23;;;;;;;;;;5113772;28;20019;-54
2023/08/20 06:18:12;;;;;;;24.40;14.88;;;;;;;;;;5113430;28;20056;-57
2023/08/20 06:20:38;;;;;;;30.33;15.18;;;;;;;;;;5113575;28;20031;-55
2023/08/20 06:23:04;;;;;;;27.98;16.05;;;;;;;;;;5111685;28;20488;-56
2023/08/20 06:25:30;;;;;;;27.30;15.32;;;;;;;;;;5111476;28;20430;-57
2023/08/20 06:27:56;;;;;;;26.73;16.77;;;;;;;;;;5113155;28;20028;-56
2023/08/20 06:30:22;;;;;;;25.85;15.52;;;;;;;;;;5113610;28;20031;-57
2023/08/20 06:32:48;;;;;;;27.52;15.80;;;;;;;;;;5112352;28;20456;-55
2023/08/20 06:35:14;;;;;;;24.67;15.55;;;;;;;;;;5113359;28;20110;-56
2023/08/20 06:37:40;;;;;;;27.95;17.08;;;;;;;;;;5113489;28;20027;-57
2023/08/20 06:40:07;;;;;;;29.75;16.67;;;;;;;;;;5097794;28;20472;-56
2023/08/20 06:42:33;;;;;;;28.67;18.50;;;;;;;;;;5089379;28;20024;-54
2023/08/20 06:44:59;;;;;;;36.72;18.52;;;;;;;;;;5092869;28;20050;-56
2023/08/20 06:47:25;;;;;;;30.67;18.98;;;;;;;;;;5092319;28;20016;-52
2023/08/20 06:49:51;;;;;;;29.83;20.30;;;;;;;;;;5092225;28;20024;-55
2023/08/20 06:52:17;;;;;;;29.85;18.33;;;;;;;;;;5092851;28;20418;-54
2023/08/20 06:54:44;;;;;;;30.33;19.00;;;;;;;;;;5092947;28;20027;-58
2023/08/20 06:57:11;;;;;;;32.97;20.80;;;;;;;;;;5093292;28;20031;-57
2023/08/20 06:59:37;;;;;;;33.20;20.98;;;;;;;;;;5092751;28;20032;-58
2023/08/20 07:02:03;;;;;;;30.27;20.23;;;;;;;;;;5093064;28;20573;-58
2023/08/20 07:04:29;;;;;;;31.02;21.15;;;;;;;;;;5092753;28;20028;-57
2023/08/20 07:06:55;;;;;;;31.73;20.48;;;;;;;;;;5092798;28;20024;-57
2023/08/20 07:09:21;;;;;;;34.10;22.67;;;;;;;;;;5094401;28;20391;-58
2023/08/20 07:11:47;;;;;;;35.38;24.70;;;;;;;;;;5112718;28;20476;-58
2023/08/20 07:14:13;;;;;;;33.05;24.52;;;;;;;;;;5112259;28;20059;-55
2023/08/20 07:16:39;;;;;;;35.92;25.33;;;;;;;;;;5112511;28;20440;-56
2023/08/20 07:19:05;;;;;;;38.53;24.98;;;;;;;;;;5112409;28;20035;-57
2023/08/20 07:21:31;;;;;;;38.30;26.38;;;;;;;;;;5112632;28;20047;-66
2023/08/20 07:23:57;;;;;;;37.28;26.38;;;;;;;;;;5112496;28;20609;-44
2023/08/20 07:26:23;;;;;;;39.10;26.25;;;;;;;;;;5112648;28;20027;-47
2023/08/20 07:29:02;;;;;;;36.22;25.88;;;;;;;;;;5112434;28;20035;-44
2023/08/20 07:31:29;;;;;;;34.50;25.65;;;;;;;;;;5112820;28;20072;-49
2023/08/20 07:33:56;;;;;;;37.40;27.95;;;;;;;;;;5113646;28;20024;-50
2023/08/20 07:36:22;;;;;;;40.30;28.35;;;;;;;;;;5112804;28;20030;-47
2023/08/20 07:38:48;;;;;;;36.42;26.35;;;;;;;;;;5094220;28;20116;-48
2023/08/20 07:41:14;;;;;;;36.85;27.65;;;;;;;;;;5110292;28;20047;-49
2023/08/20 07:43:40;;;;;;;34.47;26.35;;;;;;;;;;5109222;28;20396;-48
2023/08/20 07:46:07;;;;;;;39.30;28.92;;;;;;;;;;5073469;28;20024;-44
2023/08/20 07:48:33;;;;;;;37.03;27.05;;;;;;;;;;5091592;28;20024;-47
2023/08/20 07:50:59;;;;;;;39.88;29.85;;;;;;;;;;5091611;28;20460;-50
2023/08/20 07:53:25;;;;;;;38.47;27.25;;;;;;;;;;5091756;28;20016;-51
2023/08/20 07:55:51;;;;;;;37.30;28.10;;;;;;;;;;5091307;28;20020;-51
2023/08/20 07:58:17;;;;;;;39.67;28.58;;;;;;;;;;5091703;28;20062;-47
2023/08/20 08:00:43;;;;;;;38.95;28.63;;;;;;;;;;5078052;28;20019;-45
2023/08/20 08:03:14;;;;;;;38.20;27.80;;;;;;;;;;5093554;28;20035;-49
2023/08/20 08:05:40;;;;;;;41.50;29.00;;;;;;;;;;5111742;28;20447;-51
2023/08/20 08:08:06;;;;;;;37.95;27.90;;;;;;;;;;5092816;28;20387;-51
2023/08/20 08:10:34;;;;;;;39.97;28.70;;;;;;;;;;5071007;28;20682;-47
2023/08/20 08:13:00;;;;;;;38.00;27.42;;;;;;;;;;5071352;28;20028;-46
2023/08/20 08:15:26;;;;;;;41.72;28.15;;;;;;;;;;5071048;28;20078;-46
2023/08/20 08:17:52;;;;;;;40.95;30.65;;;;;;;;;;5071072;28;20064;-51
2023/08/20 08:20:18;;;;;;;39.22;30.67;;;;;;;;;;5071327;28;20031;-48
2023/08/20 08:22:44;;;;;;;41.53;30.10;;;;;;;;;;5070987;28;20021;-47
2023/08/20 08:25:10;;;;;;;40.53;30.85;;;;;;;;;;5070799;28;20082;-47
2023/08/20 08:27:36;;;;;;;41.28;31.08;;;;;;;;;;5071177;28;20025;-49
2023/08/20 08:30:03;;;;;;;45.47;31.73;;;;;;;;;;5070885;28;20435;-51
2023/08/20 08:32:29;;;;;;;40.20;30.13;;;;;;;;;;5071127;28;20027;-46
2023/08/20 08:34:55;;;;;;;40.72;30.40;;;;;;;;;;5071103;28;20024;-49
2023/08/20 08:37:21;;;;;;;40.28;30.45;;;;;;;;;;5070508;28;20020;-51
2023/08/20 08:39:47;;;;;;;39.05;31.08;;;;;;;;;;5073061;28;20105;-48
2023/08/20 08:42:13;;;;;;;41.47;30.40;;;;;;;;;;5085715;28;20032;-49
2023/08/20 08:44:39;;;;;;;39.65;28.38;;;;;;;;;;5091024;28;20035;-49
2023/08/20 08:47:05;;;;;;;41.10;30.25;;;;;;;;;;5090761;28;20028;-64
2023/08/20 08:49:34;;;;;;;40.22;29.88;;;;;;;;;;5073149;28;20120;-64
2023/08/20 08:52:00;;;;;;;36.88;28.85;;;;;;;;;;5072905;28;20368;-65
2023/08/20 08:54:27;;;;;;;40.05;29.63;;;;;;;;;;5090646;28;20024;-64
2023/08/20 08:56:53;;;;;;;40.45;30.52;;;;;;;;;;5073071;28;20391;-64
2023/08/20 08:59:19;;;;;;;38.28;29.70;;;;;;;;;;5090719;28;20036;-64
2023/08/20 09:01:46;;;;;;;36.30;28.75;;;;;;;;;;5090925;28;20028;-64
2023/08/20 09:04:12;;;;;;;36.58;27.23;;;;;;;;;;5090546;28;20024;-64
2023/08/20 09:06:46;;;;;;;37.90;28.45;;;;;;;;;;5090782;28;20353;-64
2023/08/20 09:09:12;;;;;;;37.95;28.98;;;;;;;;;;5090592;28;20409;-65
2023/08/20 09:11:39;;;;;;;38.95;28.80;;;;;;;;;;5085473;28;20032;-63
2023/08/20 09:14:05;;;;;;;36.35;27.05;;;;;;;;;;5074348;28;20027;-64
2023/08/20 09:16:31;;;;;;;37.80;28.92;;;;;;;;;;5074402;28;20029;-64
2023/08/20 09:19:00;;;;;;;35.55;28.60;;;;;;;;;;5074306;28;20028;-64
2023/08/20 09:21:29;;;;;;;35.22;27.13;;;;;;;;;;5074410;28;20104;-65
2023/08/20 09:24:00;;;;;;;36.30;26.55;;;;;;;;;;5056366;28;20024;-64
2023/08/20 09:26:26;;;;;;;35.63;27.30;;;;;;;;;;5074335;28;20035;-64
2023/08/20 09:28:56;;;;;;;36.88;26.92;;;;;;;;;;5056180;28;20025;-64
2023/08/20 09:31:37;;;;;;;33.50;25.48;;;;;;;;;;5074064;28;20024;-64
2023/08/20 09:34:03;;;;;;;32.45;24.40;;;;;;;;;;5074085;28;20021;-65
2023/08/20 09:36:35;;;;;;;32.92;26.10;;;;;;;;;;5055998;28;20461;-66
2023/08/20 09:39:02;;;;;;;37.60;26.60;;;;;;;;;;5073984;28;20029;-65
2023/08/20 09:41:29;;;;;;;31.40;23.83;;;;;;;;;;5073996;28;20044;-67
2023/08/20 09:43:58;;;;;;;30.00;23.83;;;;;;;;;;5093192;28;20024;-66
2023/08/20 09:46:25;;;;;;;31.67;23.45;;;;;;;;;;5078735;28;20030;-63
2023/08/20 09:48:52;;;;;;;33.47;22.90;;;;;;;;;;5073734;28;20036;-63
2023/08/20 09:51:21;;;;;;;29.42;21.52;;;;;;;;;;5073777;28;20051;-66
2023/08/20 09:53:54;;;;;;;30.40;22.50;;;;;;;;;;5073709;28;20028;-64
2023/08/20 09:56:28;;;;;;;31.35;23.30;;;;;;;;;;5055588;28;20107;-64
2023/08/20 09:58:54;;;;;;;29.50;21.40;;;;;;;;;;5073369;28;20028;-64
2023/08/20 10:01:21;;;;;;;28.50;19.92;;;;;;;;;;5073252;28;20581;-65
2023/08/20 10:03:47;;;;;;;33.00;21.77;;;;;;;;;;5073683;28;20064;-64
2023/08/20 10:06:13;;;;;;;29.88;20.17;;;;;;;;;;5055240;28;20036;-64
2023/08/20 10:08:39;;;;;;;32.75;20.30;;;;;;;;;;5055373;28;20454;-64
2023/08/20 10:11:05;;;;;;;28.45;19.90;;;;;;;;;;5073520;28;20047;-64
2023/08/20 10:13:31;;;;;;;26.60;18.33;;;;;;;;;;5083913;28;20024;-64
2023/08/20 10:15:57;;;;;;;25.48;17.52;;;;;;;;;;5074969;28;20020;-64
2023/08/20 10:18:23;;;;;;;24.98;16.27;;;;;;;;;;5075009;28;20118;-65
2023/08/20 10:20:52;;;;;;;25.10;16.23;;;;;;;;;;5075409;28;20031;-65
2023/08/20 10:23:24;;;;;;;23.92;16.65;;;;;;;;;;5074836;28;20032;-64
2023/08/20 10:25:52;;;;;;;23.92;14.77;;;;;;;;;;5090556;28;20024;-64
2023/08/20 10:28:21;;;;;;;19.52;13.20;;;;;;;;;;5083272;28;20426;-65
2023/08/20 10:31:07;;;;;;;21.20;13.40;;;;;;;;;;5092437;28;20148;-64
2023/08/20 10:33:34;;;;;;;21.50;11.63;;;;;;;;;;5086954;28;20032;-55
2023/08/20 10:36:07;;;;;;;20.17;12.60;;;;;;;;;;4720621;28;10000018;-56
2023/08/20 10:38:36;;;;;;;21.00;13.77;;;;;;;;;;5061309;28;20111;-55
2023/08/20 10:41:06;;;;;;;21.33;12.82;;;;;;;;;;5081687;28;20062;-57
2023/08/20 10:43:33;;;;;;;20.90;12.85;;;;;;;;;;5089704;28;20484;-56
2023/08/20 10:46:17;;;;;;;23.03;14.13;;;;;;;;;;5071245;28;20055;-53
2023/08/20 10:48:48;;;;;;;21.10;14.38;;;;;;;;;;5069523;28;20293;-59
2023/08/20 10:51:17;;;;;;;21.45;13.65;;;;;;;;;;5051674;28;20632;-55
2023/08/20 10:53:48;;;;;;;19.55;12.48;;;;;;;;;;5080711;28;20028;-58
2023/08/20 10:56:15;;;;;;;19.15;11.63;;;;;;;;;;5088955;28;20020;-58
2023/08/20 10:58:43;;;;;;;19.05;11.65;;;;;;;;;;5089252;28;20035;-55
2023/08/20 11:01:22;;;;;;;19.85;11.65;;;;;;;;;;5089214;28;20032;-60
2023/08/20 11:03:49;;;;;;;19.55;11.93;;;;;;;;;;5089355;28;20392;-59
2023/08/20 11:06:15;;;;;;;20.10;12.27;;;;;;;;;;5089108;28;20760;-56
2023/08/20 11:08:42;;;;;;;17.85;12.35;;;;;;;;;;5087917;28;20101;-59
2023/08/20 11:11:09;;;;;;;17.95;11.70;;;;;;;;;;5062571;28;20050;-60
2023/08/20 11:13:36;;;;;;;20.42;11.90;;;;;;;;;;5089365;28;20056;-59
2023/08/20 11:16:05;;;;;;;18.95;13.00;;;;;;;;;;5066171;28;20020;-59
2023/08/20 11:18:35;;;;;;;18.58;11.93;;;;;;;;;;5080307;28;20028;-57
2023/08/20 11:21:02;;;;;;;17.67;11.13;;;;;;;;;;5084073;28;20125;-57
2023/08/20 11:23:29;;;;;;;16.98;11.32;;;;;;;;;;5085662;28;20109;-59
2023/08/20 11:25:55;;;;;;;17.98;10.77;;;;;;;;;;5079811;28;20507;-58
2023/08/20 11:28:21;;;;;;;17.02;10.98;;;;;;;;;;5068323;28;20040;-60
2023/08/20 11:30:48;;;;;;;18.05;11.60;;;;;;;;;;5068403;28;20396;-58
2023/08/20 11:33:13;;;;;;;18.17;11.55;;;;;;;;;;5068529;28;20089;-58
2023/08/20 11:35:40;;;;;;;18.65;11.38;;;;;;;;;;5071447;28;20111;-58
2023/08/20 11:38:06;;;;;;;17.48;11.90;;;;;;;;;;5078230;28;20028;-60
2023/08/20 11:40:32;;;;;;;18.35;11.55;;;;;;;;;;5068541;28;20025;-58
2023/08/20 11:42:58;;;;;;;18.65;12.30;;;;;;;;;;5068524;28;20040;-59
2023/08/20 11:45:24;;;;;;;24.70;13.00;;;;;;;;;;5084186;28;20031;-56
2023/08/20 11:47:50;;;;;;;21.13;14.25;;;;;;;;;;5081790;28;20396;-56
2023/08/20 11:50:16;;;;;;;18.63;14.13;;;;;;;;;;5084452;28;20098;-58
2023/08/20 11:52:42;;;;;;;19.13;13.80;;;;;;;;;;5080146;28;20027;-59
2023/08/20 11:55:09;;;;;;;17.55;13.27;;;;;;;;;;5088713;28;20044;-59
2023/08/20 11:57:35;;;;;;;20.25;14.30;;;;;;;;;;5086452;28;20031;-59
2023/08/20 12:00:08;;;;;;;19.42;14.05;;;;;;;;;;5083473;28;20039;-58
2023/08/20 12:02:34;;;;;;;20.65;14.43;;;;;;;;;;5080635;28;20020;-56
2023/08/20 12:05:00;;;;;;;18.73;13.77;;;;;;;;;;5085608;28;20093;-59
2023/08/20 12:07:27;;;;;;;18.60;14.10;;;;;;;;;;5079984;28;20035;-57
2023/08/20 12:09:53;;;;;;;20.27;14.20;;;;;;;;;;5088116;28;20024;-57
2023/08/20 12:12:20;;;;;;;19.38;13.85;;;;;;;;;;5067760;28;20752;-57
2023/08/20 12:14:46;;;;;;;19.42;14.15;;;;;;;;;;5067744;28;20027;-57
2023/08/20 12:17:13;;;;;;;19.02;14.57;;;;;;;;;;5068104;28;20024;-58
2023/08/20 12:19:39;;;;;;;21.02;15.82;;;;;;;;;;5067954;28;20035;-59
2023/08/20 12:22:05;;;;;;;19.55;14.85;;;;;;;;;;5080755;28;20630;-60
2023/08/20 12:24:31;;;;;;;20.50;14.55;;;;;;;;;;5087641;28;20115;-57
2023/08/20 12:26:57;;;;;;;20.05;15.35;;;;;;;;;;5088044;28;20056;-58
2023/08/20 12:29:23;;;;;;;20.33;14.75;;;;;;;;;;5088138;28;20032;-57
2023/08/20 12:31:49;;;;;;;21.10;14.18;;;;;;;;;;5088077;28;20048;-55
2023/08/20 12:34:15;;;;;;;18.50;14.40;;;;;;;;;;5087861;28;20107;-57
2023/08/20 12:36:41;;;;;;;19.60;15.07;;;;;;;;;;5084787;28;20032;-59
2023/08/20 12:39:08;;;;;;;19.45;14.48;;;;;;;;;;5070286;28;20028;-56
2023/08/20 12:41:36;;;;;;;20.20;14.23;;;;;;;;;;5089140;28;20028;-55
2023/08/20 12:44:02;;;;;;;19.83;13.65;;;;;;;;;;5088104;28;20384;-57
2023/08/20 12:46:28;;;;;;;19.50;13.80;;;;;;;;;;5088127;28;20165;-58
2023/08/20 12:48:54;;;;;;;17.80;13.35;;;;;;;;;;5071960;28;20028;-60
2023/08/20 12:51:20;;;;;;;18.75;13.90;;;;;;;;;;5072000;28;20021;-56
2023/08/20 12:53:46;;;;;;;20.33;14.30;;;;;;;;;;5071979;28;20099;-57
2023/08/20 12:56:12;;;;;;;18.80;14.73;;;;;;;;;;5072910;28;20024;-59
2023/08/20 12:58:38;;;;;;;18.98;14.85;;;;;;;;;;5072801;28;20034;-59
2023/08/20 13:01:04;;;;;;;18.67;14.30;;;;;;;;;;5074286;28;20024;-57
2023/08/20 13:03:30;;;;;;;19.55;15.20;;;;;;;;;;5089426;28;20391;-55
2023/08/20 13:05:57;;;;;;;19.15;14.48;;;;;;;;;;5075990;28;20032;-59
2023/08/20 13:08:23;;;;;;;20.45;14.60;;;;;;;;;;5094432;28;20039;-58
2023/08/20 13:10:53;;;;;;;19.70;14.98;;;;;;;;;;5094483;28;20764;-58
2023/08/20 13:13:20;;;;;;;19.05;14.07;;;;;;;;;;5094486;28;20024;-54
2023/08/20 13:15:46;;;;;;;19.38;13.90;;;;;;;;;;5075965;28;20505;-60
2023/08/20 13:18:13;;;;;;;18.55;14.07;;;;;;;;;;5093799;28;20145;-55
2023/08/20 13:20:39;;;;;;;18.65;13.88;;;;;;;;;;5094167;28;20024;-59
2023/08/20 13:23:05;;;;;;;20.83;14.57;;;;;;;;;;5092327;28;20020;-56
2023/08/20 13:25:31;;;;;;;19.58;14.50;;;;;;;;;;5075791;28;20048;-57
2023/08/20 13:27:57;;;;;;;19.02;13.63;;;;;;;;;;5075591;28;20024;-59
2023/08/20 13:30:23;;;;;;;18.92;14.23;;;;;;;;;;5094215;28;20049;-59
2023/08/20 13:32:49;;;;;;;20.25;14.30;;;;;;;;;;5094089;28;20211;-59
2023/08/20 13:35:15;;;;;;;17.70;14.30;;;;;;;;;;5093808;28;20069;-59
2023/08/20 13:37:42;;;;;;;21.65;14.57;;;;;;;;;;5093921;28;20025;-58
2023/08/20 13:40:09;;;;;;;19.00;13.98;;;;;;;;;;5093644;28;20054;-59
2023/08/20 13:42:36;;;;;;;18.50;13.97;;;;;;;;;;5093859;28;20046;-59
2023/08/20 13:45:02;;;;;;;19.03;13.63;;;;;;;;;;4738914;28;10000520;-58
2023/08/20 13:47:28;;;;;;;22.65;14.43;;;;;;;;;;5090730;28;20032;-59
2023/08/20 13:49:54;;;;;;;20.08;13.90;;;;;;;;;;5089038;28;20097;-59
2023/08/20 13:52:20;;;;;;;19.90;13.20;;;;;;;;;;5089770;28;20659;-59
2023/08/20 13:54:46;;;;;;;17.67;13.55;;;;;;;;;;5090370;28;20040;-59
2023/08/20 13:57:12;;;;;;;19.50;13.88;;;;;;;;;;5065696;28;20051;-60
2023/08/20 13:59:38;;;;;;;18.67;13.45;;;;;;;;;;5090227;28;20036;-59
2023/08/20 14:02:05;;;;;;;17.35;13.68;;;;;;;;;;5090468;28;20027;-59
2023/08/20 14:04:31;;;;;;;18.25;13.55;;;;;;;;;;5090755;28;20032;-59
2023/08/20 14:06:57;;;;;;;18.02;12.88;;;;;;;;;;5092138;28;20468;-58
2023/08/20 14:09:22;;;;;;;18.73;13.32;;;;;;;;;;5092903;28;20024;-59
2023/08/20 14:11:48;;;;;;;17.20;13.30;;;;;;;;;;5093504;28;20017;-60
2023/08/20 14:14:14;;;;;;;16.98;13.02;;;;;;;;;;5092811;28;20051;-59